Time;durP1;ratioP1;P1;durP2;ratioP2;P2;SDS_P1;SDS_P2;PMS_P1;PMS_P2;Temp;Humidity;BMP_temperature;BMP_pressure;BME280_temperature;BME280_humidity;BME280_pressure;Samples;Min_cycle;Max_cycle;Signal;HPM_P1;HPM_P2
2024/04/02 00:01:06;;;;;;;2.65;1.60;;;;;;;21.55;40.56;100047.06;4980557;28;20043;-72
2024/04/02 00:03:32;;;;;;;1.90;1.40;;;;;;;21.56;40.60;100048.69;4953524;28;20666;-72
2024/04/02 00:05:58;;;;;;;2.75;1.50;;;;;;;21.57;40.74;100038.91;4977281;28;20036;-72
2024/04/02 00:08:23;;;;;;;1.80;1.30;;;;;;;21.61;40.64;100045.41;4971688;28;20494;-72
2024/04/02 00:10:49;;;;;;;2.58;1.55;;;;;;;21.52;40.77;100050.09;4967354;28;20356;-72
2024/04/02 00:13:15;;;;;;;1.75;1.40;;;;;;;21.47;40.79;100039.34;4964947;28;20046;-71
2024/04/02 00:15:48;;;;;;;2.10;1.40;;;;;;;21.53;41.01;100046.44;4975091;28;20666;-72
2024/04/02 00:18:15;;;;;;;2.03;1.55;;;;;;;21.53;40.65;100050.91;4967341;28;20047;-72
2024/04/02 00:20:42;;;;;;;1.67;1.30;;;;;;;21.48;40.68;100048.09;4973832;28;20724;-72
2024/04/02 00:23:08;;;;;;;2.05;1.60;;;;;;;21.54;40.77;100048.06;4976066;28;20046;-71
2024/04/02 00:25:35;;;;;;;2.20;1.60;;;;;;;21.46;40.73;100050.16;4992591;28;20047;-72
2024/04/02 00:28:00;;;;;;;2.28;1.58;;;;;;;21.46;40.56;100053.59;4991253;28;20105;-72
2024/04/02 00:30:30;;;;;;;2.50;1.65;;;;;;;21.44;40.86;100057.50;4980064;28;20058;-72
2024/04/02 00:32:57;;;;;;;1.63;1.25;;;;;;;21.41;40.61;100056.88;4964443;28;20185;-72
2024/04/02 00:35:22;;;;;;;2.88;1.58;;;;;;;21.45;40.66;100053.81;4974947;28;20046;-71
2024/04/02 00:37:49;;;;;;;2.55;1.40;;;;;;;21.47;40.52;100055.22;4991431;28;20111;-72
2024/04/02 00:40:15;;;;;;;2.33;1.95;;;;;;;21.40;40.95;100059.75;4972839;28;20127;-73
2024/04/02 00:42:41;;;;;;;3.10;1.58;;;;;;;21.41;40.80;100056.06;4962091;28;20054;-72
2024/04/02 00:45:06;;;;;;;1.60;1.27;;;;;;;21.44;40.85;100057.50;4965237;28;20038;-72
2024/04/02 00:47:32;;;;;;;2.03;1.50;;;;;;;21.45;40.45;100057.28;4969800;28;20103;-72
2024/04/02 00:50:00;;;;;;;2.05;1.58;;;;;;;21.40;40.77;100057.09;4979876;28;20074;-72
2024/04/02 00:52:26;;;;;;;2.20;1.60;;;;;;;21.42;40.47;100060.34;4964231;28;20031;-72
2024/04/02 00:54:54;;;;;;;1.70;1.30;;;;;;;21.40;40.94;100060.56;4975457;28;20388;-72
2024/04/02 00:57:19;;;;;;;2.10;1.45;;;;;;;21.39;40.76;100066.06;4962965;28;20035;-72
2024/04/02 00:59:45;;;;;;;3.35;1.60;;;;;;;21.40;40.69;100060.56;4971174;28;20054;-72
2024/04/02 01:02:10;;;;;;;3.25;2.00;;;;;;;21.39;40.49;100061.59;4971980;28;20066;-72
2024/04/02 01:04:36;;;;;;;2.20;1.35;;;;;;;21.41;40.95;100058.72;4974957;28;20058;-72
2024/04/02 01:07:02;;;;;;;1.70;1.42;;;;;;;21.37;40.59;100068.94;4968328;28;20046;-72
2024/04/02 01:09:29;;;;;;;3.70;1.60;;;;;;;21.35;40.75;100068.28;4967364;28;20062;-72
2024/04/02 01:11:57;;;;;;;2.08;1.73;;;;;;;21.38;40.28;100062.59;4976281;28;20433;-72
2024/04/02 01:14:22;;;;;;;1.70;1.38;;;;;;;21.32;40.78;100066.06;4980255;28;20485;-72
2024/04/02 01:16:48;;;;;;;3.13;1.60;;;;;;;21.29;40.63;100063.84;4993802;28;20090;-72
2024/04/02 01:19:13;;;;;;;2.58;1.80;;;;;;;21.32;40.98;100071.38;4972094;28;20055;-72
2024/04/02 01:21:39;;;;;;;2.70;1.58;;;;;;;21.27;40.85;100057.13;4969536;28;20045;-72
2024/04/02 01:24:05;;;;;;;2.05;1.55;;;;;;;21.34;40.62;100074.63;4970627;28;20042;-72
2024/04/02 01:26:31;;;;;;;1.92;1.55;;;;;;;21.35;40.88;100070.94;4969427;28;20061;-70
2024/04/02 01:29:03;;;;;;;1.70;1.42;;;;;;;21.31;40.99;100066.28;4957530;28;20078;-72
2024/04/02 01:31:31;;;;;;;2.45;1.70;;;;;;;21.29;40.64;100065.66;4969036;28;20035;-72
2024/04/02 01:33:57;;;;;;;2.55;1.80;;;;;;;21.33;40.61;100062.38;4969660;28;20045;-72
2024/04/02 01:36:23;;;;;;;2.53;1.58;;;;;;;21.32;40.68;100063.41;4952113;28;20327;-71
2024/04/02 01:38:48;;;;;;;1.92;1.40;;;;;;;21.30;40.52;100059.34;4971499;28;20116;-72
2024/04/02 01:41:14;;;;;;;2.55;1.98;;;;;;;21.28;40.77;100056.91;5036495;28;20597;-71
2024/04/02 01:43:39;;;;;;;3.05;1.67;;;;;;;21.24;40.55;100063.66;4954885;28;20035;-72
2024/04/02 01:46:05;;;;;;;3.20;1.83;;;;;;;21.29;40.82;100066.47;4971488;28;20063;-72
2024/04/02 01:48:31;;;;;;;2.17;1.60;;;;;;;21.26;40.86;100061.59;4964850;28;20062;-72
2024/04/02 01:50:57;;;;;;;2.60;1.50;;;;;;;21.25;40.64;100064.47;4972169;28;20429;-73
2024/04/02 01:53:22;;;;;;;2.55;1.52;;;;;;;21.26;40.54;100061.59;4970538;28;20037;-72
2024/04/02 01:55:48;;;;;;;2.20;1.70;;;;;;;21.23;40.91;100067.28;4969272;28;20334;-72
2024/04/02 01:58:13;;;;;;;2.08;1.63;;;;;;;21.17;41.14;100068.09;4981685;28;20033;-72
2024/04/02 02:00:39;;;;;;;3.17;1.90;;;;;;;21.21;40.59;100069.34;4973420;28;20062;-72
2024/04/02 02:03:05;;;;;;;2.00;1.60;;;;;;;21.23;40.67;100064.66;4984598;28;20051;-72
2024/04/02 02:05:31;;;;;;;2.00;1.50;;;;;;;21.18;40.73;100067.06;4976275;28;20711;-72
2024/04/02 02:07:56;;;;;;;2.25;1.80;;;;;;;21.13;40.70;100062.41;4972477;28;20047;-71
2024/04/02 02:10:22;;;;;;;2.03;1.65;;;;;;;21.18;40.71;100066.25;4975026;28;20061;-72
2024/04/02 02:12:48;;;;;;;2.45;1.55;;;;;;;21.11;40.96;100058.34;4965666;28;20047;-71
2024/04/02 02:15:13;;;;;;;2.17;1.70;;;;;;;21.12;41.04;100055.50;4974905;28;20050;-72
2024/04/02 02:17:39;;;;;;;1.90;1.60;;;;;;;21.16;40.78;100068.31;4993054;28;20042;-71
2024/04/02 02:20:05;;;;;;;2.35;1.52;;;;;;;21.17;40.76;100064.63;4982852;28;20117;-72
2024/04/02 02:22:31;;;;;;;2.35;1.70;;;;;;;21.18;40.66;100072.38;4961330;28;20050;-72
2024/04/02 02:24:57;;;;;;;2.28;1.70;;;;;;;21.18;40.85;100068.91;5046083;28;20085;-71
2024/04/02 02:27:22;;;;;;;2.22;1.60;;;;;;;21.17;41.02;100069.94;5050885;28;20093;-72
2024/04/02 02:29:48;;;;;;;2.20;1.60;;;;;;;21.13;40.85;100066.88;4970294;28;20051;-72
2024/04/02 02:32:13;;;;;;;2.00;1.70;;;;;;;21.16;40.80;100074.41;4948147;28;20035;-72
2024/04/02 02:34:39;;;;;;;2.40;1.45;;;;;;;21.17;40.83;100062.81;4960595;28;20038;-72
2024/04/02 02:37:05;;;;;;;1.73;1.38;;;;;;;21.09;41.05;100071.78;4969843;28;20069;-71
2024/04/02 02:39:30;;;;;;;2.13;1.60;;;;;;;21.09;40.81;100066.50;4947680;28;20374;-72
2024/04/02 02:41:57;;;;;;;1.65;1.55;;;;;;;21.10;40.84;100075.25;4967573;28;20038;-72
2024/04/02 02:44:23;;;;;;;2.30;1.63;;;;;;;21.11;40.89;100068.94;4975266;28;20480;-72
2024/04/02 02:46:48;;;;;;;2.03;1.48;;;;;;;21.14;40.78;100076.47;4968706;28;20042;-72
2024/04/02 02:49:14;;;;;;;2.25;1.60;;;;;;;21.07;41.14;100079.13;4971862;28;20355;-72
2024/04/02 02:51:40;;;;;;;2.40;1.98;;;;;;;21.07;40.83;100076.47;4966803;28;20043;-71
2024/04/02 02:54:05;;;;;;;1.98;1.60;;;;;;;21.02;41.19;100083.41;4936550;28;20043;-72
2024/04/02 02:56:31;;;;;;;2.53;1.52;;;;;;;21.04;40.69;100079.53;4980066;28;20416;-71
2024/04/02 02:58:56;;;;;;;2.20;1.67;;;;;;;21.08;40.62;100082.59;4978179;28;20100;-73
2024/04/02 03:01:22;;;;;;;1.80;1.60;;;;;;;21.03;40.70;100091.16;4972083;28;20042;-72
2024/04/02 03:03:48;;;;;;;1.95;1.50;;;;;;;21.01;41.00;100093.19;4989669;28;20409;-72
2024/04/02 03:06:14;;;;;;;2.13;1.50;;;;;;;21.04;40.70;100087.47;4977931;28;20794;-72
2024/04/02 03:08:40;;;;;;;2.08;1.52;;;;;;;20.99;41.10;100092.56;4966217;28;20051;-72
2024/04/02 03:11:06;;;;;;;2.13;1.65;;;;;;;21.00;40.80;100083.59;4969950;28;20034;-72
2024/04/02 03:13:33;;;;;;;2.03;1.48;;;;;;;21.06;40.63;100084.63;4963152;28;20043;-72
2024/04/02 03:16:00;;;;;;;2.65;1.80;;;;;;;21.05;40.56;100085.66;4967899;28;20130;-72
2024/04/02 03:18:26;;;;;;;2.50;2.00;;;;;;;21.00;40.73;100094.19;4968568;28;20035;-72
2024/04/02 03:20:52;;;;;;;2.00;1.52;;;;;;;21.03;40.76;100095.63;4975229;28;20046;-72
2024/04/02 03:23:17;;;;;;;2.35;1.50;;;;;;;21.00;40.54;100099.47;4973536;28;20066;-71
2024/04/02 03:26:00;;;;;;;2.13;1.75;;;;;;;21.00;41.00;100104.78;4967999;28;20059;-71
2024/04/02 03:28:27;;;;;;;2.95;1.48;;;;;;;21.02;40.87;100105.41;4967371;28;20030;-72
2024/04/02 03:30:57;;;;;;;2.50;1.63;;;;;;;21.01;40.91;100106.44;4972231;28;20081;-72
2024/04/02 03:33:23;;;;;;;1.98;1.48;;;;;;;21.05;40.54;100106.81;4985722;28;20539;-72
2024/04/02 03:35:49;;;;;;;2.40;1.80;;;;;;;20.96;40.90;100108.03;4965437;28;20061;-71
2024/04/02 03:38:14;;;;;;;2.33;1.85;;;;;;;20.96;40.82;100110.69;4970569;28;20031;-71
2024/04/02 03:40:40;;;;;;;3.17;1.60;;;;;;;20.98;40.80;100113.94;4968814;28;20046;-71
2024/04/02 03:43:06;;;;;;;2.50;1.70;;;;;;;20.97;40.81;100115.78;4962970;28;20390;-70
2024/04/02 03:45:39;;;;;;;2.63;1.60;;;;;;;20.90;40.93;100114.97;4976287;28;20042;-71
2024/04/02 03:48:05;;;;;;;1.60;1.33;;;;;;;21.00;40.82;100122.47;4969834;28;20035;-71
2024/04/02 03:50:30;;;;;;;1.77;1.48;;;;;;;20.91;40.76;100124.53;4966342;28;20131;-71
2024/04/02 03:52:56;;;;;;;2.53;1.73;;;;;;;20.95;40.91;100125.75;4972442;28;20058;-71
2024/04/02 03:55:21;;;;;;;1.80;1.60;;;;;;;20.97;40.63;100129.00;4964389;28;20050;-70
2024/04/02 03:57:46;;;;;;;1.85;1.50;;;;;;;20.93;40.88;100125.16;4966278;28;20045;-70
2024/04/02 04:00:13;;;;;;;2.80;1.60;;;;;;;20.95;40.72;100131.03;4950312;28;20061;-71
2024/04/02 04:02:39;;;;;;;2.33;1.55;;;;;;;20.88;40.99;100130.25;4964046;28;20054;-71
2024/04/02 04:05:04;;;;;;;2.08;1.40;;;;;;;20.88;40.89;100138.19;4951823;28;20047;-71
2024/04/02 04:07:30;;;;;;;1.60;1.33;;;;;;;20.90;40.92;100133.50;4966148;28;20065;-71
2024/04/02 04:09:55;;;;;;;2.00;1.42;;;;;;;20.85;40.96;100133.28;4973086;28;20483;-71
2024/04/02 04:12:21;;;;;;;1.60;1.27;;;;;;;20.89;40.72;100144.28;4988280;28;20038;-71
2024/04/02 04:14:48;;;;;;;1.90;1.50;;;;;;;20.90;40.85;100138.78;4947376;28;20051;-71
2024/04/02 04:17:14;;;;;;;1.92;1.40;;;;;;;20.88;40.74;100140.81;4965246;28;20057;-72
2024/04/02 04:19:39;;;;;;;2.47;1.45;;;;;;;20.89;40.69;100144.28;4961829;28;20384;-71
2024/04/02 04:22:05;;;;;;;1.88;1.52;;;;;;;20.86;40.80;100142.06;4982621;28;20100;-72
2024/04/02 04:24:30;;;;;;;2.38;1.65;;;;;;;20.85;40.66;100149.19;4947808;28;20047;-71
2024/04/02 04:26:56;;;;;;;1.88;1.40;;;;;;;20.89;40.71;100157.53;4970147;28;20106;-71
2024/04/02 04:29:22;;;;;;;1.83;1.23;;;;;;;20.85;40.73;100158.94;5029240;28;20069;-71
2024/04/02 04:31:47;;;;;;;2.22;1.63;;;;;;;20.79;40.88;100158.72;4968624;28;20043;-69
2024/04/02 04:34:13;;;;;;;1.98;1.42;;;;;;;20.88;40.86;100159.34;4938189;28;20038;-69
2024/04/02 04:36:39;;;;;;;1.90;1.33;;;;;;;20.80;40.85;100155.06;4966098;28;20425;-71
2024/04/02 04:39:05;;;;;;;1.67;1.50;;;;;;;20.79;40.71;100161.38;5052762;28;20340;-70
2024/04/02 04:41:34;;;;;;;1.67;1.35;;;;;;;20.85;40.60;100172.19;4963026;28;20054;-71
2024/04/02 04:44:00;;;;;;;1.90;1.40;;;;;;;20.85;40.70;100173.00;4964958;28;20134;-71
2024/04/02 04:46:26;;;;;;;2.05;1.38;;;;;;;20.88;40.82;100169.13;4974938;28;20035;-70
2024/04/02 04:48:51;;;;;;;2.03;1.75;;;;;;;20.79;41.07;100181.72;4984380;28;20054;-70
2024/04/02 04:51:17;;;;;;;2.35;1.40;;;;;;;20.82;40.97;100173.38;4974234;28;20103;-70
2024/04/02 04:53:42;;;;;;;2.38;1.42;;;;;;;20.80;41.01;100181.50;4952075;28;20045;-70
2024/04/02 04:56:08;;;;;;;1.85;1.30;;;;;;;20.82;40.80;100178.66;4974051;28;20494;-70
2024/04/02 04:58:34;;;;;;;1.90;1.40;;;;;;;20.79;40.84;100184.38;4972614;28;20054;-70
2024/04/02 05:01:02;;;;;;;1.95;1.30;;;;;;;20.81;40.91;100184.97;4971121;28;20041;-70
2024/04/02 05:03:28;;;;;;;1.63;1.38;;;;;;;20.79;40.87;100187.00;4968052;28;20234;-71
2024/04/02 05:06:08;;;;;;;1.80;1.30;;;;;;;20.81;40.89;100192.91;4958173;28;20810;-70
2024/04/02 05:08:35;;;;;;;1.60;1.30;;;;;;;20.79;40.83;100200.25;4964177;28;20049;-71
2024/04/02 05:11:02;;;;;;;1.73;1.30;;;;;;;20.81;40.97;100204.31;4970358;28;20054;-71
2024/04/02 05:13:29;;;;;;;1.95;1.40;;;;;;;20.76;40.99;100212.03;4966381;28;20137;-71
2024/04/02 05:15:54;;;;;;;1.88;1.48;;;;;;;20.78;40.95;100206.53;4970647;28;20056;-71
2024/04/02 05:18:20;;;;;;;1.50;1.23;;;;;;;20.77;41.03;100218.16;4977402;28;20042;-71
2024/04/02 05:20:45;;;;;;;3.22;1.42;;;;;;;20.77;40.90;100207.56;4971026;28;20038;-71
2024/04/02 05:23:12;;;;;;;1.80;1.10;;;;;;;20.77;40.90;100210.22;4976839;28;20468;-70
2024/04/02 05:25:38;;;;;;;1.55;1.15;;;;;;;20.81;40.71;100208.78;4964587;28;21244;-73
2024/04/02 05:28:04;;;;;;;2.33;1.40;;;;;;;20.76;40.92;100213.88;4968711;28;20058;-72
2024/04/02 05:30:29;;;;;;;1.45;1.20;;;;;;;20.79;40.75;100210.81;4968186;28;20051;-71
2024/04/02 05:32:55;;;;;;;1.98;1.52;;;;;;;20.77;40.92;100213.66;4966555;28;20058;-70
2024/04/02 05:35:21;;;;;;;2.40;1.27;;;;;;;20.80;41.01;100218.56;4968195;28;20418;-71
2024/04/02 05:37:51;;;;;;;1.60;1.13;;;;;;;20.77;40.73;100221.59;4967693;28;20039;-73
2024/04/02 05:40:20;;;;;;;1.98;1.20;;;;;;;20.79;40.90;100227.50;4949738;28;20055;-73
2024/04/02 05:42:46;;;;;;;1.40;1.15;;;;;;;20.76;40.78;100229.75;4976920;28;20053;-72
2024/04/02 05:45:12;;;;;;;2.33;1.67;;;;;;;20.76;40.80;100233.22;4977161;28;20043;-72
2024/04/02 05:47:38;;;;;;;1.88;1.40;;;;;;;20.75;41.05;100238.72;4971567;28;20038;-73
2024/04/02 05:50:05;;;;;;;1.70;1.45;;;;;;;20.77;40.99;100242.78;4965849;28;20057;-72
2024/04/02 05:52:30;;;;;;;1.90;1.20;;;;;;;20.80;40.91;100237.09;4968666;28;20038;-72
2024/04/02 05:54:56;;;;;;;2.22;1.23;;;;;;;20.76;40.81;100249.09;4943652;28;20038;-72
2024/04/02 05:57:21;;;;;;;1.60;1.38;;;;;;;20.78;40.75;100247.06;4970511;28;20047;-72
2024/04/02 05:59:50;;;;;;;1.55;1.30;;;;;;;20.76;40.91;100245.63;4965133;28;20041;-73
2024/04/02 06:02:19;;;;;;;1.42;0.95;;;;;;;20.76;41.00;100250.91;4973500;28;20070;-73
2024/04/02 06:04:45;;;;;;;2.17;1.20;;;;;;;20.75;40.97;100255.41;4976219;28;20064;-72
2024/04/02 06:07:10;;;;;;;1.80;1.08;;;;;;;20.75;40.77;100254.59;4973293;28;20042;-71
2024/04/02 06:09:36;;;;;;;1.58;1.08;;;;;;;20.74;40.96;100252.94;4972816;28;20034;-73
2024/04/02 06:12:05;;;;;;;1.63;1.20;;;;;;;20.70;41.15;100263.13;4969971;28;20112;-73
2024/04/02 06:14:31;;;;;;;1.88;1.33;;;;;;;20.73;40.93;100269.84;4941687;28;20063;-72
2024/04/02 06:16:57;;;;;;;1.80;1.13;;;;;;;20.68;41.12;100270.44;4966079;28;20577;-72
2024/04/02 06:19:22;;;;;;;1.52;1.10;;;;;;;20.73;40.88;100264.56;4975308;28;20096;-73
2024/04/02 06:21:48;;;;;;;1.85;1.25;;;;;;;20.76;40.73;100275.53;4969967;28;20062;-73
2024/04/02 06:24:14;;;;;;;1.67;1.38;;;;;;;20.74;40.88;100272.28;4967970;28;20042;-73
2024/04/02 06:26:40;;;;;;;1.70;1.30;;;;;;;20.78;40.78;100278.00;4973617;28;20048;-72
2024/04/02 06:29:06;;;;;;;1.40;1.13;;;;;;;20.79;40.83;100276.97;4966844;28;20063;-73
2024/04/02 06:31:32;;;;;;;1.77;1.10;;;;;;;21.03;40.35;100265.03;4984306;28;20071;-73
2024/04/02 06:33:58;;;;;;;1.55;1.23;;;;;;;21.38;39.77;100273.66;4980849;28;20078;-73
2024/04/02 06:36:24;;;;;;;1.83;1.20;;;;;;;21.78;39.31;100271.81;4971435;28;20428;-73
2024/04/02 06:38:49;;;;;;;2.58;1.02;;;;;;;21.96;38.66;100282.59;4986036;28;20042;-72
2024/04/02 06:41:15;;;;;;;1.52;1.20;;;;;;;21.94;38.79;100279.34;4979695;28;20043;-72
2024/04/02 06:43:41;;;;;;;1.75;1.20;;;;;;;21.94;39.08;100283.84;4967779;28;20633;-73
2024/04/02 06:46:06;;;;;;;2.10;1.17;;;;;;;21.89;39.09;100279.13;4946083;28;20085;-73
2024/04/02 06:48:32;;;;;;;2.05;1.10;;;;;;;21.88;39.33;100276.69;4991699;28;20046;-73
2024/04/02 06:51:16;;;;;;;2.22;1.13;;;;;;;21.84;39.16;100272.81;4968746;28;20108;-73
2024/04/02 06:53:42;;;;;;;1.80;1.50;;;;;;;21.83;39.31;100276.50;4969399;28;20037;-71
2024/04/02 06:56:08;;;;;;;3.03;1.00;;;;;;;21.81;39.12;100287.31;4978213;28;20522;-71
2024/04/02 06:58:33;;;;;;;2.42;1.20;;;;;;;21.77;39.59;100285.28;5058319;28;20119;-71
2024/04/02 07:00:59;;;;;;;1.40;1.30;;;;;;;21.75;39.28;100296.09;4974238;28;20042;-71
2024/04/02 07:03:26;;;;;;;2.35;1.10;;;;;;;21.71;39.58;100293.00;4982290;28;20036;-70
2024/04/02 07:05:52;;;;;;;1.50;0.93;;;;;;;21.70;39.79;100298.50;4974305;28;20382;-71
2024/04/02 07:08:24;;;;;;;1.48;1.27;;;;;;;21.68;39.61;100298.72;4979072;28;20171;-72
2024/04/02 07:11:03;;;;;;;2.03;1.23;;;;;;;21.70;39.66;100301.16;4978086;28;20539;-71
2024/04/02 07:13:34;;;;;;;1.15;0.90;;;;;;;21.68;39.44;100297.91;4970588;28;20576;-71
2024/04/02 07:16:03;;;;;;;1.88;1.30;;;;;;;21.67;39.95;100302.38;4977101;28;20044;-70
2024/04/02 07:18:37;;;;;;;1.40;0.90;;;;;;;21.67;39.66;100296.28;4970799;28;20566;-70
2024/04/02 07:21:05;;;;;;;1.55;0.80;;;;;;;21.69;39.88;100303.00;4976098;28;20050;-72
2024/04/02 07:23:31;;;;;;;2.88;1.27;;;;;;;21.66;39.65;100308.72;4983470;28;20060;-71
2024/04/02 07:25:57;;;;;;;1.38;0.90;;;;;;;21.60;39.89;100303.44;4982300;28;20041;-70
2024/04/02 07:28:23;;;;;;;1.58;1.10;;;;;;;21.59;39.91;100310.56;4991321;28;20486;-73
2024/04/02 07:30:49;;;;;;;1.10;0.90;;;;;;;21.58;40.05;100313.41;4974984;28;20050;-72
2024/04/02 07:33:15;;;;;;;1.50;1.10;;;;;;;21.62;40.01;100319.94;4962964;28;20055;-73
2024/04/02 07:35:42;;;;;;;1.92;1.00;;;;;;;21.57;40.23;100315.25;4963247;28;20047;-73
2024/04/02 07:38:09;;;;;;;1.65;0.95;;;;;;;21.59;39.90;100328.28;5049065;28;20049;-73
2024/04/02 07:40:34;;;;;;;2.33;1.00;;;;;;;21.56;40.06;100318.91;4973100;28;20360;-73
2024/04/02 07:43:00;;;;;;;1.90;1.00;;;;;;;21.57;39.77;100330.34;4975644;28;20068;-73
2024/04/02 07:45:26;;;;;;;1.23;0.80;;;;;;;21.55;39.77;100327.88;4966575;28;20031;-73
2024/04/02 07:47:51;;;;;;;1.33;1.00;;;;;;;21.55;40.05;100327.06;4971480;28;20035;-72
2024/04/02 07:50:17;;;;;;;1.50;1.10;;;;;;;21.56;40.63;100332.16;4989336;28;20042;-72
2024/04/02 07:52:43;;;;;;;1.13;1.00;;;;;;;21.53;40.05;100332.53;4977481;28;20449;-72
2024/04/02 07:55:09;;;;;;;1.30;1.00;;;;;;;21.50;40.04;100345.38;4976414;28;20682;-72
2024/04/02 07:57:34;;;;;;;2.08;0.90;;;;;;;21.51;40.06;100342.53;4971330;28;20034;-73
2024/04/02 08:00:00;;;;;;;1.10;0.80;;;;;;;21.50;40.12;100346.19;4970505;28;20043;-72
2024/04/02 08:02:25;;;;;;;1.05;0.95;;;;;;;21.54;40.15;100349.25;4977313;28;20065;-73
2024/04/02 08:04:52;;;;;;;1.60;1.10;;;;;;;21.55;40.09;100358.88;4971896;28;20047;-72
2024/04/02 08:07:20;;;;;;;1.63;0.90;;;;;;;21.51;39.97;100354.97;4968253;28;20039;-75
2024/04/02 08:09:45;;;;;;;1.50;0.90;;;;;;;21.46;40.14;100360.06;4967197;28;20430;-75
2024/04/02 08:12:14;;;;;;;1.67;1.00;;;;;;;21.51;39.92;100355.78;4970585;28;20039;-75
2024/04/02 08:14:39;;;;;;;1.40;0.98;;;;;;;21.51;40.07;100360.25;4962172;28;20055;-75
2024/04/02 08:17:05;;;;;;;2.38;1.10;;;;;;;21.50;40.25;100366.56;4977820;28;20050;-75
2024/04/02 08:19:31;;;;;;;1.42;0.82;;;;;;;21.48;40.07;100371.25;4966998;28;20345;-74
2024/04/02 08:21:57;;;;;;;2.08;0.70;;;;;;;21.45;40.29;100377.78;4968487;28;20115;-76
2024/04/02 08:24:24;;;;;;;3.75;1.25;;;;;;;21.40;39.87;100375.75;4965670;28;20352;-75
2024/04/02 08:26:50;;;;;;;1.98;1.30;;;;;;;21.45;39.55;100376.97;4966084;28;20137;-74
2024/04/02 08:29:15;;;;;;;2.08;0.98;;;;;;;21.46;39.50;100375.94;4964463;28;20042;-74
2024/04/02 08:31:41;;;;;;;1.42;0.93;;;;;;;21.42;39.71;100394.09;4968484;28;20469;-74
2024/04/02 08:34:06;;;;;;;2.63;1.20;;;;;;;21.41;39.58;100380.03;4964083;28;20481;-74
2024/04/02 08:36:32;;;;;;;2.30;1.40;;;;;;;21.33;39.48;100392.63;4949588;28;20042;-74
2024/04/02 08:38:57;;;;;;;3.17;1.10;;;;;;;21.35;39.19;100380.00;4975009;28;20685;-74
2024/04/02 08:41:26;;;;;;;2.03;1.20;;;;;;;21.35;39.51;100390.59;4976196;28;21885;-72
2024/04/02 08:43:57;;;;;;;3.13;1.20;;;;;;;21.34;39.44;100389.78;4975024;28;20047;-73
2024/04/02 08:46:26;;;;;;;2.85;1.27;;;;;;;21.33;39.35;100389.97;4981154;28;20053;-73
2024/04/02 08:48:53;;;;;;;2.75;1.45;;;;;;;21.35;39.42;100396.69;4976064;28;20057;-73
2024/04/02 08:51:20;;;;;;;2.90;1.30;;;;;;;21.32;39.57;100402.41;4960962;28;20042;-72
2024/04/02 08:53:45;;;;;;;2.03;1.02;;;;;;;21.22;39.48;100390.53;4969744;28;20201;-73
2024/04/02 08:56:14;;;;;;;1.45;1.10;;;;;;;21.30;39.77;100404.44;4976099;28;20125;-73
2024/04/02 08:58:40;;;;;;;3.28;1.20;;;;;;;21.32;39.48;100412.19;4984494;28;20045;-73
2024/04/02 09:01:07;;;;;;;4.22;1.23;;;;;;;21.31;39.51;100407.91;4977053;28;20039;-73
2024/04/02 09:03:34;;;;;;;1.88;1.30;;;;;;;21.32;39.24;100406.88;4972365;28;20061;-73
2024/04/02 09:06:02;;;;;;;1.92;1.20;;;;;;;21.27;39.38;100411.97;4985094;28;20038;-73
2024/04/02 09:08:28;;;;;;;3.40;1.20;;;;;;;21.26;39.38;100408.50;4974859;28;20248;-73
2024/04/02 09:10:54;;;;;;;2.92;1.30;;;;;;;21.24;39.44;100410.53;4971935;28;20039;-72
2024/04/02 09:13:20;;;;;;;1.88;1.30;;;;;;;21.24;39.39;100415.00;4953107;28;20119;-72
2024/04/02 09:15:47;;;;;;;1.67;1.00;;;;;;;21.28;39.30;100422.34;4964728;28;20047;-73
2024/04/02 09:18:14;;;;;;;2.13;1.13;;;;;;;21.27;39.45;100422.56;4964362;28;20042;-72
2024/04/02 09:20:40;;;;;;;2.63;1.27;;;;;;;21.25;39.34;100414.00;4963308;28;20051;-72
2024/04/02 09:23:05;;;;;;;4.53;1.17;;;;;;;21.23;39.79;100418.66;4968806;28;20112;-72
2024/04/02 09:25:31;;;;;;;2.30;1.40;;;;;;;21.26;39.31;100418.28;4970958;28;20046;-72
2024/04/02 09:27:56;;;;;;;2.25;1.23;;;;;;;21.24;39.43;100422.94;4975730;28;20051;-72
2024/04/02 09:30:25;;;;;;;2.42;1.30;;;;;;;21.21;39.60;100423.34;4976315;28;20320;-72
2024/04/02 09:32:52;;;;;;;4.22;1.40;;;;;;;21.21;39.30;100429.44;4969507;28;20060;-71
2024/04/02 09:35:48;;;;;;;2.25;1.20;;;;;;;21.20;39.42;100424.34;4980272;28;20036;-72
2024/04/02 09:38:16;;;;;;;2.15;1.20;;;;;;;21.27;39.36;100431.31;4989310;28;20472;-73
2024/04/02 09:40:42;;;;;;;2.80;1.40;;;;;;;21.23;39.29;100430.06;4971754;28;20112;-73
2024/04/02 09:43:14;;;;;;;3.05;1.52;;;;;;;21.27;39.28;100436.63;4963162;28;20057;-73
2024/04/02 09:45:39;;;;;;;4.63;1.80;;;;;;;21.15;39.30;100427.56;4974356;28;20114;-72
2024/04/02 09:48:07;;;;;;;6.15;2.20;;;;;;;21.21;39.31;100437.38;4965999;28;20047;-72
2024/04/02 09:50:34;;;;;;;3.42;1.60;;;;;;;21.42;38.83;100434.63;4944885;28;20073;-73
2024/04/02 09:53:00;;;;;;;5.07;1.67;;;;;;;21.73;38.67;100449.19;4978840;28;20112;-74
2024/04/02 09:55:28;;;;;;;2.58;1.40;;;;;;;21.94;38.22;100438.41;4964565;28;20054;-73
2024/04/02 09:57:54;;;;;;;3.22;1.52;;;;;;;22.07;38.08;100437.59;4967915;28;20035;-72
2024/04/02 10:00:20;;;;;;;2.92;1.60;;;;;;;22.09;38.07;100443.53;4968225;28;20046;-74
2024/04/02 10:02:46;;;;;;;4.20;1.33;;;;;;;22.06;37.83;100443.94;4965759;28;20050;-73
2024/04/02 10:05:20;;;;;;;5.50;1.40;;;;;;;22.02;37.85;100450.63;4961479;28;20043;-74
2024/04/02 10:07:50;;;;;;;3.80;1.63;;;;;;;21.99;37.86;100443.09;4966736;28;20038;-74
2024/04/02 10:10:16;;;;;;;;;;;;;;;21.93;38.38;100450.03;4961487;28;20081;-74
2024/04/02 10:12:42;;;;;;;2.08;1.20;;;;;;;21.93;38.52;100444.72;4976222;28;19974;-73
2024/04/02 10:15:12;;;;;;;3.53;1.63;;;;;;;21.87;38.74;100456.13;4961842;28;20169;-74
2024/04/02 10:17:38;;;;;;;2.83;1.73;;;;;;;21.84;38.84;100445.09;4961842;28;20532;-74
2024/04/02 10:20:42;;;;;;;3.22;1.38;;;;;;;21.83;38.69;100457.53;4947665;28;20051;-73
2024/04/02 10:23:10;;;;;;;3.20;1.60;;;;;;;21.81;38.56;100456.13;4982277;28;20073;-74
2024/04/02 10:25:37;;;;;;;4.43;1.98;;;;;;;21.79;38.39;100455.50;4987270;28;20050;-73
2024/04/02 10:28:03;;;;;;;2.60;1.50;;;;;;;21.77;38.48;100465.50;4977015;28;20133;-73
2024/04/02 10:30:29;;;;;;;3.15;1.50;;;;;;;21.73;38.50;100464.28;4965454;28;20043;-73
2024/04/02 10:32:56;;;;;;;4.63;1.40;;;;;;;21.74;38.69;100456.13;4952518;28;20053;-73
2024/04/02 10:35:24;;;;;;;3.85;1.50;;;;;;;21.70;38.55;100468.13;4966038;28;20719;-73
2024/04/02 10:37:51;;;;;;;4.22;1.45;;;;;;;21.70;38.86;100471.56;4966821;28;20440;-74
2024/04/02 10:40:17;;;;;;;4.18;1.67;;;;;;;21.68;39.20;100467.50;4969692;28;20054;-74
2024/04/02 10:42:48;;;;;;;3.20;1.65;;;;;;;21.69;38.79;100466.47;4967970;28;20049;-74
2024/04/02 10:45:18;;;;;;;2.90;1.70;;;;;;;21.70;38.83;100468.94;4973069;28;20609;-73
2024/04/02 10:47:46;;;;;;;;;;;;;;;21.68;38.83;100465.66;4971777;28;20042;-73
2024/04/02 10:50:16;;;;;;;4.97;1.60;;;;;;;21.62;39.02;100469.13;4988256;28;20352;-73
2024/04/02 10:52:42;;;;;;;4.70;1.77;;;;;;;21.62;38.99;100466.47;4976800;28;20057;-73
2024/04/02 10:55:08;;;;;;;3.08;1.60;;;;;;;21.58;39.00;100467.91;4962566;28;20038;-74
2024/04/02 10:57:35;;;;;;;3.90;1.90;;;;;;;21.59;39.15;100477.47;4968047;28;20030;-73
2024/04/02 11:00:04;;;;;;;2.80;1.90;;;;;;;21.56;39.17;100471.78;4977986;28;20113;-73
2024/04/02 11:02:31;;;;;;;3.67;1.88;;;;;;;21.56;39.22;100471.78;4970801;28;20487;-74
2024/04/02 11:04:57;;;;;;;3.38;1.70;;;;;;;21.53;38.93;100469.50;4961232;28;20103;-73
2024/04/02 11:07:25;;;;;;;3.63;1.92;;;;;;;21.48;39.29;100475.41;5046982;28;20540;-73
2024/04/02 11:09:52;;;;;;;3.50;2.00;;;;;;;21.55;39.00;100467.50;4971270;28;20035;-73
2024/04/02 11:12:18;;;;;;;4.78;2.03;;;;;;;21.42;39.23;100481.50;4972590;28;20038;-73
2024/04/02 11:14:44;;;;;;;3.50;1.73;;;;;;;21.45;39.35;100470.50;4941098;28;20051;-74
2024/04/02 11:17:09;;;;;;;4.93;2.20;;;;;;;21.47;39.35;100475.59;4964175;28;20042;-73
2024/04/02 11:19:36;;;;;;;3.15;1.80;;;;;;;21.45;39.35;100464.38;4961915;28;20050;-73
2024/04/02 11:25:03;;;;;;;2.80;1.77;;;;;;;21.44;39.29;100466.22;4965845;28;20046;-74
2024/04/02 11:27:30;;;;;;;2.90;1.88;;;;;;;21.38;39.54;100465.19;4971598;28;20059;-73